Akebono — JG5644 — position and weather

sailwx.info

Track history (hours):
 
Tides and Currents Weather Stations Pressure Air Temp Water Temp Dewpoint Dewpoint Depression Visibility Wind Speed Wind Dir Waves Ship Positions

Akebono

Last reported at 2018-Jan-18 16:00 UTC. Time now 2018-Jan-18 16:12 UTC.
Position N 35°36' E 140°07'.

Length 33 m; draft 4.4 m.

Type: Tug. MMSI: 431000233.

Date/timePositionNaut miles runAvg speedWind from/ knotsBaromVisibWave heightAir tempDewpointWater temp
2018-Jan-18 16:00N 35°36' E 140°07'0 0.0
2018-Jan-18 15:30N 35°36' E 140°07'0 0.0
2018-Jan-18 15:00N 35°36' E 140°07'0 0.0
2018-Jan-18 14:30N 35°36' E 140°07'0 0.0
2018-Jan-18 14:00N 35°36' E 140°07'0 0.0
2018-Jan-18 13:30N 35°36' E 140°07'0 0.0
2018-Jan-18 13:00N 35°36' E 140°07'0 0.0
2018-Jan-18 12:30N 35°36' E 140°07'0 0.0
2018-Jan-18 12:00N 35°36' E 140°07'0 0.0
2018-Jan-18 11:30N 35°36' E 140°07'0 0.0
2018-Jan-18 11:00N 35°36' E 140°07'0 0.0
2018-Jan-18 10:30N 35°36' E 140°07'0 0.0
2018-Jan-18 10:00N 35°36' E 140°07'0 0.0
2018-Jan-18 09:30N 35°36' E 140°07'0 0.0
2018-Jan-18 09:00N 35°36' E 140°07'0 0.0
2018-Jan-18 08:30N 35°36' E 140°07'0 0.0
2018-Jan-18 08:00N 35°36' E 140°07'1 2.3
2018-Jan-18 07:30N 35°36' E 140°06'1 2.5
2018-Jan-18 07:00N 35°35' E 140°04'510.0
2018-Jan-18 06:30N 35°33' E 139°59'2 3.2
2018-Jan-18 06:00N 35°34' E 140°00'4 8.9
2018-Jan-18 05:30N 35°36' E 140°05'1 2.6
2018-Jan-18 05:00N 35°36' E 140°07'0 0.0
2018-Jan-18 04:30N 35°36' E 140°07'0 0.0
2018-Jan-18 04:00N 35°36' E 140°07'0 0.0
2018-Jan-18 03:30N 35°36' E 140°07'0 0.0
2018-Jan-18 03:00N 35°36' E 140°07'4 7.5
2018-Jan-18 02:30N 35°34' E 140°03'4 8.4
2018-Jan-18 02:00N 35°30' E 140°01'0 0.0
2018-Jan-18 01:30N 35°30' E 140°01'1 1.3
2018-Jan-18 00:56N 35°30' E 140°01'4 4.1
2018-Jan-17 23:58N 35°33' E 139°57'0 3.0
2018-Jan-17 23:53N 35°33' E 139°58'  
2018-Jan-12 15:00N 35°36' E 140°07'0 0.0
2018-Jan-12 14:30N 35°36' E 140°07'0 0.0
2018-Jan-12 14:00N 35°36' E 140°07'0 0.0
2018-Jan-12 13:30N 35°36' E 140°07'0 0.0
2018-Jan-12 13:00N 35°36' E 140°07'0 0.0
2018-Jan-12 12:30N 35°36' E 140°07'0 0.0
2018-Jan-12 12:00N 35°36' E 140°07'0 0.0
2018-Jan-12 11:30N 35°36' E 140°07'0 0.0
2018-Jan-12 11:00N 35°36' E 140°07'0 0.0
2018-Jan-12 10:30N 35°36' E 140°07'0 0.0
2018-Jan-12 10:00N 35°36' E 140°07'0 0.0
2018-Jan-12 09:30N 35°36' E 140°07'0 0.0
2018-Jan-12 09:00N 35°36' E 140°07'0 0.0
2018-Jan-12 08:30N 35°36' E 140°07'0 0.0
2018-Jan-12 08:00N 35°36' E 140°07'0 0.0
2018-Jan-12 07:30N 35°36' E 140°07'1 2.0
2018-Jan-12 07:00N 35°35' E 140°06'0 0.0
2018-Jan-12 06:31N 35°35' E 140°06'1 1.0
2018-Jan-12 06:00N 35°35' E 140°06'3 5.1
2018-Jan-12 05:29N 35°35' E 140°03'5 9.2
2018-Jan-12 04:54N 35°32' E 139°57'1 2.2
2018-Jan-12 04:23N 35°32' E 139°56'2 4.7
2018-Jan-12 03:56N 35°30' E 139°57'2 4.9
2018-Jan-12 03:30N 35°28' E 139°58'0 0.0
2018-Jan-12 03:00N 35°28' E 139°58'0 0.0
2018-Jan-12 02:30N 35°28' E 139°58'1 1.5
2018-Jan-12 02:00N 35°29' E 139°58'3 7.0
2018-Jan-12 01:31N 35°29' E 139°54'3 6.6
2018-Jan-12 01:00N 35°29' E 139°58'1 1.3
2018-Jan-12 00:30N 35°28' E 139°58'0 0.2
2018-Jan-12 00:01N 35°29' E 139°58'713.1
2018-Jan-11 23:30N 35°34' E 140°03'4 7.6
2018-Jan-11 23:00N 35°36' E 140°07'0 0.0
2018-Jan-11 22:30N 35°36' E 140°07'0 0.0
2018-Jan-11 22:00N 35°36' E 140°07'0 0.0
2018-Jan-11 21:30N 35°36' E 140°07'0 0.0
2018-Jan-11 20:59N 35°36' E 140°07'0 0.0
2018-Jan-11 20:30N 35°36' E 140°07'0 0.0
2018-Jan-11 20:00N 35°36' E 140°07'0 0.0
2018-Jan-11 19:30N 35°36' E 140°07'0 0.0
2018-Jan-11 19:00N 35°36' E 140°07'0 0.0
2018-Jan-11 18:30N 35°36' E 140°07'0 0.0
2018-Jan-11 18:00N 35°36' E 140°07'0 0.0
2018-Jan-11 17:30N 35°36' E 140°07'0 0.0
2018-Jan-11 17:00N 35°36' E 140°07'0 0.0
2018-Jan-11 16:30N 35°36' E 140°07'0 0.0
2018-Jan-11 16:00N 35°36' E 140°07'0 0.0
2018-Jan-11 15:30N 35°36' E 140°07'0 0.0
2018-Jan-11 15:00N 35°36' E 140°07'0 0.0
2018-Jan-11 14:30N 35°36' E 140°07'0 0.0
2018-Jan-11 14:00N 35°36' E 140°07'0 0.0
2018-Jan-11 13:30N 35°36' E 140°07'0 0.0
2018-Jan-11 13:00N 35°36' E 140°07'0 0.0
2018-Jan-11 12:30N 35°36' E 140°07'0 0.0
2018-Jan-11 12:00N 35°36' E 140°07'0 0.0
2018-Jan-11 11:30N 35°36' E 140°07'0 0.0
2018-Jan-11 11:00N 35°36' E 140°07'0 0.0
2018-Jan-11 10:30N 35°36' E 140°07'0 0.0
2018-Jan-11 10:00N 35°36' E 140°07'0 0.0
2018-Jan-11 09:30N 35°36' E 140°07'0 0.0
2018-Jan-11 09:00N 35°36' E 140°07'0 0.0
2018-Jan-11 08:29N 35°36' E 140°07'0 0.0
2018-Jan-11 08:00N 35°36' E 140°07'0 0.0
2018-Jan-11 07:30N 35°36' E 140°07'0 0.0
2018-Jan-11 07:00N 35°36' E 140°07'0 0.0
2018-Jan-11 06:30N 35°36' E 140°07'0 0.0
2018-Jan-11 06:00N 35°36' E 140°07'0 0.0
2018-Jan-11 05:30N 35°36' E 140°07'0 0.0
2018-Jan-11 05:01N 35°36' E 140°07'0 0.0
2018-Jan-11 04:31N 35°36' E 140°07'0 0.0
2018-Jan-11 04:00N 35°36' E 140°07'0 0.0
2018-Jan-11 03:31N 35°36' E 140°07'0 0.0
2018-Jan-11 03:01N 35°36' E 140°07'0 0.0
2018-Jan-11 02:30N 35°36' E 140°07'0 0.0
2018-Jan-11 01:59N 35°36' E 140°07'0 0.0
2018-Jan-11 01:31N 35°36' E 140°07'0 0.0
2018-Jan-11 01:00N 35°36' E 140°07'0 0.0
2018-Jan-11 00:30N 35°36' E 140°07'0 0.0
2018-Jan-11 00:00N 35°36' E 140°07'0 0.0
2018-Jan-10 23:30N 35°36' E 140°07'0 0.0
2018-Jan-10 23:01N 35°36' E 140°07'2 3.2
2018-Jan-10 22:31N 35°37' E 140°05'1 1.6
2018-Jan-10 22:00N 35°36' E 140°05'1 2.5
2018-Jan-10 21:30N 35°35' E 140°04'0 0.0
2018-Jan-10 21:00N 35°35' E 140°04'0 0.0
2018-Jan-10 20:31N 35°35' E 140°04'2 4.9
2018-Jan-10 20:00N 35°36' E 140°07'0 0.1
2018-Jan-10 19:30N 35°36' E 140°07'0 0.0
2018-Jan-10 19:00N 35°36' E 140°07'0 0.0
2018-Jan-10 18:30N 35°36' E 140°07'0 0.0
2018-Jan-10 18:01N 35°36' E 140°07'0 0.0
2018-Jan-10 17:28N 35°36' E 140°07'0 0.0
2018-Jan-10 17:00N 35°36' E 140°07'0 0.0
2018-Jan-10 16:30N 35°36' E 140°07'0 0.0
2018-Jan-10 15:58N 35°36' E 140°07'0 0.0
2018-Jan-10 15:30N 35°36' E 140°07'0 0.0
2018-Jan-10 15:00N 35°36' E 140°07'0 0.0
2018-Jan-10 14:30N 35°36' E 140°07'0 0.0
2018-Jan-10 14:00N 35°36' E 140°07'0 0.0
2018-Jan-10 13:30N 35°36' E 140°07'0 0.0
2018-Jan-10 13:00N 35°36' E 140°07'0 0.0
2018-Jan-10 12:30N 35°36' E 140°07'0 0.0
2018-Jan-10 12:00N 35°36' E 140°07'0 0.0
2018-Jan-10 11:30N 35°36' E 140°07'0 0.0
2018-Jan-10 11:00N 35°36' E 140°07'0 0.0
2018-Jan-10 10:30N 35°36' E 140°07'0 0.0
2018-Jan-10 10:00N 35°36' E 140°07'0 0.0
2018-Jan-10 09:30N 35°36' E 140°07'0 0.0
2018-Jan-10 09:00N 35°36' E 140°07'0 0.0
2018-Jan-10 08:30N 35°36' E 140°07'4 8.4
2018-Jan-10 08:00N 35°36' E 140°02'3 3.0
2018-Jan-10 06:59N 35°38' E 139°59'510.7
2018-Jan-10 06:30N 35°36' E 140°04'2 4.1
2018-Jan-10 06:00N 35°36' E 140°07'0 0.0
2018-Jan-10 05:30N 35°36' E 140°07'0 0.0
2018-Jan-10 05:00N 35°36' E 140°07'3 6.0
2018-Jan-10 04:30N 35°33' E 140°04'0 0.1
2018-Jan-10 04:00N 35°33' E 140°04'0 0.1
2018-Jan-10 03:30N 35°33' E 140°04'0 0.0
2018-Jan-10 03:00N 35°33' E 140°04'0 0.0
2018-Jan-10 02:31N 35°33' E 140°04'0 0.0
2018-Jan-10 02:00N 35°33' E 140°04'0 0.1
2018-Jan-10 01:30N 35°33' E 140°04'1 1.4
2018-Jan-10 01:00N 35°33' E 140°05'1 1.1
2018-Jan-10 00:30N 35°33' E 140°04'1 2.7
2018-Jan-10 00:00N 35°34' E 140°03'0 0.0
2018-Jan-09 23:30N 35°34' E 140°03'2 3.1
2018-Jan-09 23:00N 35°35' E 140°04'2 4.7
2018-Jan-09 22:30N 35°36' E 140°07'0 0.1
2018-Jan-09 22:00N 35°36' E 140°07'0 0.0
2018-Jan-09 21:30N 35°36' E 140°07'0 0.0
2018-Jan-09 21:00N 35°36' E 140°07'0 0.0
2018-Jan-09 20:30N 35°36' E 140°07'0 0.0
2018-Jan-09 20:00N 35°36' E 140°07'0 0.0
2018-Jan-09 19:30N 35°36' E 140°07'0 0.0
2018-Jan-09 19:00N 35°36' E 140°07'0 0.0
2018-Jan-09 18:30N 35°36' E 140°07'0 0.0
2018-Jan-09 18:00N 35°36' E 140°07'0 0.0
2018-Jan-09 17:30N 35°36' E 140°07'0 0.0
2018-Jan-09 17:00N 35°36' E 140°07'0 0.0
2018-Jan-09 16:30N 35°36' E 140°07'0 0.0
2018-Jan-09 16:00N 35°36' E 140°07'0 0.0
2018-Jan-09 15:30N 35°36' E 140°07'0 0.0
2018-Jan-09 15:00N 35°36' E 140°07'0 0.0
2018-Jan-09 14:30N 35°36' E 140°07'0 0.0
2018-Jan-09 14:00N 35°36' E 140°07'0 0.0
2018-Jan-09 13:30N 35°36' E 140°07'0 0.0
2018-Jan-09 13:00N 35°36' E 140°07'0 0.0
2018-Jan-09 12:30N 35°36' E 140°07'0 0.0
2018-Jan-09 12:00N 35°36' E 140°07'0 0.0
2018-Jan-09 11:30N 35°36' E 140°07'0 0.0
2018-Jan-09 11:00N 35°36' E 140°07'0 0.0
2018-Jan-09 10:30N 35°36' E 140°07'0 0.0
2018-Jan-09 10:00N 35°36' E 140°07'0 0.0
2018-Jan-09 09:30N 35°36' E 140°07'0 0.0
2018-Jan-09 09:00N 35°36' E 140°07'0 0.0
2018-Jan-09 08:30N 35°36' E 140°07'0 0.0
2018-Jan-09 08:00N 35°36' E 140°07'0 0.0
2018-Jan-09 07:30N 35°36' E 140°07'0 0.0
2018-Jan-09 07:00N 35°36' E 140°07'0 0.0
2018-Jan-09 06:30N 35°36' E 140°07'0 0.0
2018-Jan-09 06:00N 35°36' E 140°07'0 0.0
2018-Jan-09 05:31N 35°36' E 140°07'0 0.0
2018-Jan-09 05:00N 35°36' E 140°07'0 0.0
2018-Jan-09 04:30N 35°36' E 140°07'0 0.0
2018-Jan-09 04:00N 35°36' E 140°07'0 0.0
2018-Jan-09 03:30N 35°36' E 140°07'0 0.0
2018-Jan-09 03:01N 35°36' E 140°07'0 0.0
2018-Jan-09 02:30N 35°36' E 140°07'0 0.0
2018-Jan-09 02:00N 35°36' E 140°07'0 0.0
2018-Jan-09 01:30N 35°36' E 140°07'0 0.0
2018-Jan-09 01:00N 35°36' E 140°07'0 0.0
2018-Jan-09 00:30N 35°36' E 140°07'0 0.0
2018-Jan-09 00:00N 35°36' E 140°07'0 0.0
2018-Jan-08 23:31N 35°36' E 140°07'1 2.6
2018-Jan-08 23:01N 35°36' E 140°05'0 0.1
2018-Jan-08 22:30N 35°36' E 140°05'0 0.6
2018-Jan-08 22:00N 35°36' E 140°05'2 3.3
2018-Jan-08 21:31N 35°36' E 140°03'0 0.0
2018-Jan-08 21:00N 35°36' E 140°03'0 0.0
2018-Jan-08 20:30N 35°36' E 140°03'3 5.7
2018-Jan-08 20:01N 35°36' E 140°07'0 0.1
2018-Jan-08 19:30N 35°36' E 140°07'0 0.0
2018-Jan-08 19:00N 35°36' E 140°07'0 0.0
2018-Jan-08 18:30N 35°36' E 140°07'0 0.0
2018-Jan-08 18:00N 35°36' E 140°07'0 0.0
2018-Jan-08 17:30N 35°36' E 140°07'0 0.0
2018-Jan-08 17:00N 35°36' E 140°07'0 0.0
2018-Jan-08 16:30N 35°36' E 140°07'0 0.0
2018-Jan-08 16:00N 35°36' E 140°07'  
Track history (hours):
 
Tides and Currents Weather Stations Pressure Air Temp Water Temp Dewpoint Dewpoint Depression Visibility Wind Speed Wind Dir Waves Ship Positions

Akebono

Last reported at 2018-Jan-18 16:00 UTC. Time now 2018-Jan-18 16:12 UTC.
Position N 35°36' E 140°07'.

Length 33 m; draft 4.4 m.

Type: Tug. MMSI: 431000233.

Date/timePositionNaut miles runAvg speedWind from/ knotsBaromVisibWave heightAir tempDewpointWater temp
2018-Jan-18 16:00N 35°36' E 140°07'0 0.0
2018-Jan-18 15:30N 35°36' E 140°07'0 0.0
2018-Jan-18 15:00N 35°36' E 140°07'0 0.0
2018-Jan-18 14:30N 35°36' E 140°07'0 0.0
2018-Jan-18 14:00N 35°36' E 140°07'0 0.0
2018-Jan-18 13:30N 35°36' E 140°07'0 0.0
2018-Jan-18 13:00N 35°36' E 140°07'0 0.0
2018-Jan-18 12:30N 35°36' E 140°07'0 0.0
2018-Jan-18 12:00N 35°36' E 140°07'0 0.0
2018-Jan-18 11:30N 35°36' E 140°07'0 0.0
2018-Jan-18 11:00N 35°36' E 140°07'0 0.0
2018-Jan-18 10:30N 35°36' E 140°07'0 0.0
2018-Jan-18 10:00N 35°36' E 140°07'0 0.0
2018-Jan-18 09:30N 35°36' E 140°07'0 0.0
2018-Jan-18 09:00N 35°36' E 140°07'0 0.0
2018-Jan-18 08:30N 35°36' E 140°07'0 0.0
2018-Jan-18 08:00N 35°36' E 140°07'1 2.3
2018-Jan-18 07:30N 35°36' E 140°06'1 2.5
2018-Jan-18 07:00N 35°35' E 140°04'510.0
2018-Jan-18 06:30N 35°33' E 139°59'2 3.2
2018-Jan-18 06:00N 35°34' E 140°00'4 8.9
2018-Jan-18 05:30N 35°36' E 140°05'1 2.6
2018-Jan-18 05:00N 35°36' E 140°07'0 0.0
2018-Jan-18 04:30N 35°36' E 140°07'0 0.0
2018-Jan-18 04:00N 35°36' E 140°07'0 0.0
2018-Jan-18 03:30N 35°36' E 140°07'0 0.0
2018-Jan-18 03:00N 35°36' E 140°07'4 7.5
2018-Jan-18 02:30N 35°34' E 140°03'4 8.4
2018-Jan-18 02:00N 35°30' E 140°01'0 0.0
2018-Jan-18 01:30N 35°30' E 140°01'1 1.3
2018-Jan-18 00:56N 35°30' E 140°01'4 4.1
2018-Jan-17 23:58N 35°33' E 139°57'0 3.0
2018-Jan-17 23:53N 35°33' E 139°58'  
2018-Jan-12 15:00N 35°36' E 140°07'0 0.0
2018-Jan-12 14:30N 35°36' E 140°07'0 0.0
2018-Jan-12 14:00N 35°36' E 140°07'0 0.0
2018-Jan-12 13:30N 35°36' E 140°07'0 0.0
2018-Jan-12 13:00N 35°36' E 140°07'0 0.0
2018-Jan-12 12:30N 35°36' E 140°07'0 0.0
2018-Jan-12 12:00N 35°36' E 140°07'0 0.0
2018-Jan-12 11:30N 35°36' E 140°07'0 0.0
2018-Jan-12 11:00N 35°36' E 140°07'0 0.0
2018-Jan-12 10:30N 35°36' E 140°07'0 0.0
2018-Jan-12 10:00N 35°36' E 140°07'0 0.0
2018-Jan-12 09:30N 35°36' E 140°07'0 0.0
2018-Jan-12 09:00N 35°36' E 140°07'0 0.0
2018-Jan-12 08:30N 35°36' E 140°07'0 0.0
2018-Jan-12 08:00N 35°36' E 140°07'0 0.0
2018-Jan-12 07:30N 35°36' E 140°07'1 2.0
2018-Jan-12 07:00N 35°35' E 140°06'0 0.0
2018-Jan-12 06:31N 35°35' E 140°06'1 1.0
2018-Jan-12 06:00N 35°35' E 140°06'3 5.1
2018-Jan-12 05:29N 35°35' E 140°03'5 9.2
2018-Jan-12 04:54N 35°32' E 139°57'1 2.2
2018-Jan-12 04:23N 35°32' E 139°56'2 4.7
2018-Jan-12 03:56N 35°30' E 139°57'2 4.9
2018-Jan-12 03:30N 35°28' E 139°58'0 0.0
2018-Jan-12 03:00N 35°28' E 139°58'0 0.0
2018-Jan-12 02:30N 35°28' E 139°58'1 1.5
2018-Jan-12 02:00N 35°29' E 139°58'3 7.0
2018-Jan-12 01:31N 35°29' E 139°54'3 6.6
2018-Jan-12 01:00N 35°29' E 139°58'1 1.3
2018-Jan-12 00:30N 35°28' E 139°58'0 0.2
2018-Jan-12 00:01N 35°29' E 139°58'713.1
2018-Jan-11 23:30N 35°34' E 140°03'4 7.6
2018-Jan-11 23:00N 35°36' E 140°07'0 0.0
2018-Jan-11 22:30N 35°36' E 140°07'0 0.0
2018-Jan-11 22:00N 35°36' E 140°07'0 0.0
2018-Jan-11 21:30N 35°36' E 140°07'0 0.0
2018-Jan-11 20:59N 35°36' E 140°07'0 0.0
2018-Jan-11 20:30N 35°36' E 140°07'0 0.0
2018-Jan-11 20:00N 35°36' E 140°07'0 0.0
2018-Jan-11 19:30N 35°36' E 140°07'0 0.0
2018-Jan-11 19:00N 35°36' E 140°07'0 0.0
2018-Jan-11 18:30N 35°36' E 140°07'0 0.0
2018-Jan-11 18:00N 35°36' E 140°07'0 0.0
2018-Jan-11 17:30N 35°36' E 140°07'0 0.0
2018-Jan-11 17:00N 35°36' E 140°07'0 0.0
2018-Jan-11 16:30N 35°36' E 140°07'0 0.0
2018-Jan-11 16:00N 35°36' E 140°07'0 0.0
2018-Jan-11 15:30N 35°36' E 140°07'0 0.0
2018-Jan-11 15:00N 35°36' E 140°07'0 0.0
2018-Jan-11 14:30N 35°36' E 140°07'0 0.0
2018-Jan-11 14:00N 35°36' E 140°07'0 0.0
2018-Jan-11 13:30N 35°36' E 140°07'0 0.0
2018-Jan-11 13:00N 35°36' E 140°07'0 0.0
2018-Jan-11 12:30N 35°36' E 140°07'0 0.0
2018-Jan-11 12:00N 35°36' E 140°07'0 0.0
2018-Jan-11 11:30N 35°36' E 140°07'0 0.0
2018-Jan-11 11:00N 35°36' E 140°07'0 0.0
2018-Jan-11 10:30N 35°36' E 140°07'0 0.0
2018-Jan-11 10:00N 35°36' E 140°07'0 0.0
2018-Jan-11 09:30N 35°36' E 140°07'0 0.0
2018-Jan-11 09:00N 35°36' E 140°07'0 0.0
2018-Jan-11 08:29N 35°36' E 140°07'0 0.0
2018-Jan-11 08:00N 35°36' E 140°07'0 0.0
2018-Jan-11 07:30N 35°36' E 140°07'0 0.0
2018-Jan-11 07:00N 35°36' E 140°07'0 0.0
2018-Jan-11 06:30N 35°36' E 140°07'0 0.0
2018-Jan-11 06:00N 35°36' E 140°07'0 0.0
2018-Jan-11 05:30N 35°36' E 140°07'0 0.0
2018-Jan-11 05:01N 35°36' E 140°07'0 0.0
2018-Jan-11 04:31N 35°36' E 140°07'0 0.0
2018-Jan-11 04:00N 35°36' E 140°07'0 0.0
2018-Jan-11 03:31N 35°36' E 140°07'0 0.0
2018-Jan-11 03:01N 35°36' E 140°07'0 0.0
2018-Jan-11 02:30N 35°36' E 140°07'0 0.0
2018-Jan-11 01:59N 35°36' E 140°07'0 0.0
2018-Jan-11 01:31N 35°36' E 140°07'0 0.0
2018-Jan-11 01:00N 35°36' E 140°07'0 0.0
2018-Jan-11 00:30N 35°36' E 140°07'0 0.0
2018-Jan-11 00:00N 35°36' E 140°07'0 0.0
2018-Jan-10 23:30N 35°36' E 140°07'0 0.0
2018-Jan-10 23:01N 35°36' E 140°07'2 3.2
2018-Jan-10 22:31N 35°37' E 140°05'1 1.6
2018-Jan-10 22:00N 35°36' E 140°05'1 2.5
2018-Jan-10 21:30N 35°35' E 140°04'0 0.0
2018-Jan-10 21:00N 35°35' E 140°04'0 0.0
2018-Jan-10 20:31N 35°35' E 140°04'2 4.9
2018-Jan-10 20:00N 35°36' E 140°07'0 0.1
2018-Jan-10 19:30N 35°36' E 140°07'0 0.0
2018-Jan-10 19:00N 35°36' E 140°07'0 0.0
2018-Jan-10 18:30N 35°36' E 140°07'0 0.0
2018-Jan-10 18:01N 35°36' E 140°07'0 0.0
2018-Jan-10 17:28N 35°36' E 140°07'0 0.0
2018-Jan-10 17:00N 35°36' E 140°07'0 0.0
2018-Jan-10 16:30N 35°36' E 140°07'0 0.0
2018-Jan-10 15:58N 35°36' E 140°07'0 0.0
2018-Jan-10 15:30N 35°36' E 140°07'0 0.0
2018-Jan-10 15:00N 35°36' E 140°07'0 0.0
2018-Jan-10 14:30N 35°36' E 140°07'0 0.0
2018-Jan-10 14:00N 35°36' E 140°07'0 0.0
2018-Jan-10 13:30N 35°36' E 140°07'0 0.0
2018-Jan-10 13:00N 35°36' E 140°07'0 0.0
2018-Jan-10 12:30N 35°36' E 140°07'0 0.0
2018-Jan-10 12:00N 35°36' E 140°07'0 0.0
2018-Jan-10 11:30N 35°36' E 140°07'0 0.0
2018-Jan-10 11:00N 35°36' E 140°07'0 0.0
2018-Jan-10 10:30N 35°36' E 140°07'0 0.0
2018-Jan-10 10:00N 35°36' E 140°07'0 0.0
2018-Jan-10 09:30N 35°36' E 140°07'0 0.0
2018-Jan-10 09:00N 35°36' E 140°07'0 0.0
2018-Jan-10 08:30N 35°36' E 140°07'4 8.4
2018-Jan-10 08:00N 35°36' E 140°02'3 3.0
2018-Jan-10 06:59N 35°38' E 139°59'510.7
2018-Jan-10 06:30N 35°36' E 140°04'2 4.1
2018-Jan-10 06:00N 35°36' E 140°07'0 0.0
2018-Jan-10 05:30N 35°36' E 140°07'0 0.0
2018-Jan-10 05:00N 35°36' E 140°07'3 6.0
2018-Jan-10 04:30N 35°33' E 140°04'0 0.1
2018-Jan-10 04:00N 35°33' E 140°04'0 0.1
2018-Jan-10 03:30N 35°33' E 140°04'0 0.0
2018-Jan-10 03:00N 35°33' E 140°04'0 0.0
2018-Jan-10 02:31N 35°33' E 140°04'0 0.0
2018-Jan-10 02:00N 35°33' E 140°04'0 0.1
2018-Jan-10 01:30N 35°33' E 140°04'1 1.4
2018-Jan-10 01:00N 35°33' E 140°05'1 1.1
2018-Jan-10 00:30N 35°33' E 140°04'1 2.7
2018-Jan-10 00:00N 35°34' E 140°03'0 0.0
2018-Jan-09 23:30N 35°34' E 140°03'2 3.1
2018-Jan-09 23:00N 35°35' E 140°04'2 4.7
2018-Jan-09 22:30N 35°36' E 140°07'0 0.1
2018-Jan-09 22:00N 35°36' E 140°07'0 0.0
2018-Jan-09 21:30N 35°36' E 140°07'0 0.0
2018-Jan-09 21:00N 35°36' E 140°07'0 0.0
2018-Jan-09 20:30N 35°36' E 140°07'0 0.0
2018-Jan-09 20:00N 35°36' E 140°07'0 0.0
2018-Jan-09 19:30N 35°36' E 140°07'0 0.0
2018-Jan-09 19:00N 35°36' E 140°07'0 0.0
2018-Jan-09 18:30N 35°36' E 140°07'0 0.0
2018-Jan-09 18:00N 35°36' E 140°07'0 0.0
2018-Jan-09 17:30N 35°36' E 140°07'0 0.0
2018-Jan-09 17:00N 35°36' E 140°07'0 0.0
2018-Jan-09 16:30N 35°36' E 140°07'0 0.0
2018-Jan-09 16:00N 35°36' E 140°07'0 0.0
2018-Jan-09 15:30N 35°36' E 140°07'0 0.0
2018-Jan-09 15:00N 35°36' E 140°07'0 0.0
2018-Jan-09 14:30N 35°36' E 140°07'0 0.0
2018-Jan-09 14:00N 35°36' E 140°07'0 0.0
2018-Jan-09 13:30N 35°36' E 140°07'0 0.0
2018-Jan-09 13:00N 35°36' E 140°07'0 0.0
2018-Jan-09 12:30N 35°36' E 140°07'0 0.0
2018-Jan-09 12:00N 35°36' E 140°07'0 0.0
2018-Jan-09 11:30N 35°36' E 140°07'0 0.0
2018-Jan-09 11:00N 35°36' E 140°07'0 0.0
2018-Jan-09 10:30N 35°36' E 140°07'0 0.0
2018-Jan-09 10:00N 35°36' E 140°07'0 0.0
2018-Jan-09 09:30N 35°36' E 140°07'0 0.0
2018-Jan-09 09:00N 35°36' E 140°07'0 0.0
2018-Jan-09 08:30N 35°36' E 140°07'0 0.0
2018-Jan-09 08:00N 35°36' E 140°07'0 0.0
2018-Jan-09 07:30N 35°36' E 140°07'0 0.0
2018-Jan-09 07:00N 35°36' E 140°07'0 0.0
2018-Jan-09 06:30N 35°36' E 140°07'0 0.0
2018-Jan-09 06:00N 35°36' E 140°07'0 0.0
2018-Jan-09 05:31N 35°36' E 140°07'0 0.0
2018-Jan-09 05:00N 35°36' E 140°07'0 0.0
2018-Jan-09 04:30N 35°36' E 140°07'0 0.0
2018-Jan-09 04:00N 35°36' E 140°07'0 0.0
2018-Jan-09 03:30N 35°36' E 140°07'0 0.0
2018-Jan-09 03:01N 35°36' E 140°07'0 0.0
2018-Jan-09 02:30N 35°36' E 140°07'0 0.0
2018-Jan-09 02:00N 35°36' E 140°07'0 0.0
2018-Jan-09 01:30N 35°36' E 140°07'0 0.0
2018-Jan-09 01:00N 35°36' E 140°07'0 0.0
2018-Jan-09 00:30N 35°36' E 140°07'0 0.0
2018-Jan-09 00:00N 35°36' E 140°07'0 0.0
2018-Jan-08 23:31N 35°36' E 140°07'1 2.6
2018-Jan-08 23:01N 35°36' E 140°05'0 0.1
2018-Jan-08 22:30N 35°36' E 140°05'0 0.6
2018-Jan-08 22:00N 35°36' E 140°05'2 3.3
2018-Jan-08 21:31N 35°36' E 140°03'0 0.0
2018-Jan-08 21:00N 35°36' E 140°03'0 0.0
2018-Jan-08 20:30N 35°36' E 140°03'3 5.7
2018-Jan-08 20:01N 35°36' E 140°07'0 0.1
2018-Jan-08 19:30N 35°36' E 140°07'0 0.0
2018-Jan-08 19:00N 35°36' E 140°07'0 0.0
2018-Jan-08 18:30N 35°36' E 140°07'0 0.0
2018-Jan-08 18:00N 35°36' E 140°07'0 0.0
2018-Jan-08 17:30N 35°36' E 140°07'0 0.0
2018-Jan-08 17:00N 35°36' E 140°07'0 0.0
2018-Jan-08 16:30N 35°36' E 140°07'0 0.0
2018-Jan-08 16:00N 35°36' E 140°07'  

Dump ship's entire track history